Time;durP1;ratioP1;P1;durP2;ratioP2;P2;SDS_P1;SDS_P2;PMS_P1;PMS_P2;Temp;Humidity;BMP_temperature;BMP_pressure;BME280_temperature;BME280_humidity;BME280_pressure;Samples;Min_cycle;Max_cycle;Signal;HPM_P1;HPM_P2
2021/06/12 04:01:34;;;;;;;21.93;20.00;;;18.90;99.90;;;;;;5508713;22;21001;-64
2021/06/12 04:04:00;;;;;;;21.37;19.60;;;18.80;99.90;;;;;;5033538;28;20542;-64
2021/06/12 04:06:26;;;;;;;22.17;20.37;;;18.80;99.90;;;;;;5033993;28;20460;-64
2021/06/12 04:08:53;;;;;;;21.17;19.47;;;18.80;99.90;;;;;;5034165;28;20452;-64
2021/06/12 04:11:19;;;;;;;22.60;20.50;;;18.90;99.90;;;;;;5033154;28;20972;-64
2021/06/12 04:13:45;;;;;;;21.50;19.50;;;18.90;99.90;;;;;;5033522;28;20459;-64
2021/06/12 04:16:12;;;;;;;22.53;20.73;;;18.90;99.90;;;;;;5033558;28;20452;-64
2021/06/12 04:18:40;;;;;;;20.50;18.80;;;18.80;99.90;;;;;;5033958;28;20447;-64
2021/06/12 04:21:06;;;;;;;21.43;19.77;;;18.80;99.90;;;;;;5033416;28;20482;-64
2021/06/12 04:23:32;;;;;;;19.90;18.30;;;18.90;99.90;;;;;;5033517;28;20448;-64
2021/06/12 04:25:59;;;;;;;20.13;18.53;;;18.90;99.90;;;;;;5033483;28;20452;-64
2021/06/12 04:28:25;;;;;;;20.67;19.13;;;19.00;99.90;;;;;;5033464;28;20463;-64
2021/06/12 04:30:51;;;;;;;19.63;18.03;;;19.00;99.90;;;;;;5033423;28;20476;-64
2021/06/12 04:33:18;;;;;;;19.37;17.87;;;19.10;99.90;;;;;;5033317;28;20617;-64
2021/06/12 04:35:45;;;;;;;19.30;17.90;;;19.10;99.90;;;;;;5033151;28;21002;-64
2021/06/12 04:38:12;;;;;;;20.57;18.97;;;19.20;99.90;;;;;;5033296;28;20452;-63
2021/06/12 04:40:38;;;;;;;18.63;17.03;;;19.30;99.90;;;;;;5034125;28;20472;-64
2021/06/12 04:43:06;;;;;;;19.77;17.97;;;19.30;99.90;;;;;;5033327;28;20503;-63
2021/06/12 04:45:33;;;;;;;17.20;15.80;;;19.30;99.90;;;;;;5033213;28;20462;-63
2021/06/12 04:48:00;;;;;;;19.20;17.77;;;19.40;99.90;;;;;;5033218;28;20804;-64
2021/06/12 04:50:28;;;;;;;18.57;17.07;;;19.50;99.90;;;;;;5033182;28;20506;-64
2021/06/12 04:52:55;;;;;;;19.43;17.50;;;19.50;99.90;;;;;;5033104;28;20617;-64
2021/06/12 04:55:22;;;;;;;18.63;16.93;;;19.50;99.90;;;;;;5033133;28;20506;-65
2021/06/12 04:57:48;;;;;;;18.17;16.70;;;19.60;99.90;;;;;;5032774;28;20972;-64
2021/06/12 05:00:15;;;;;;;20.20;18.13;;;19.60;99.90;;;;;;5034555;28;20459;-65
2021/06/12 05:02:41;;;;;;;18.80;17.40;;;19.50;99.90;;;;;;5036895;28;20443;-65
2021/06/12 05:05:09;;;;;;;18.17;16.80;;;19.50;99.90;;;;;;5036603;28;20456;-65
2021/06/12 05:07:36;;;;;;;18.97;17.47;;;19.40;99.90;;;;;;5036642;28;20455;-64
2021/06/12 05:10:04;;;;;;;17.70;16.40;;;19.50;99.90;;;;;;5036561;28;20452;-65
2021/06/12 05:12:30;;;;;;;20.53;19.03;;;19.40;99.90;;;;;;5036409;28;20478;-64
2021/06/12 05:14:59;;;;;;;19.43;17.93;;;19.40;99.90;;;;;;5036519;28;20456;-65
2021/06/12 05:17:26;;;;;;;20.10;18.00;;;19.40;99.90;;;;;;5036450;28;20456;-64
2021/06/12 05:19:53;;;;;;;18.40;16.93;;;19.50;99.90;;;;;;5036679;28;20460;-64
2021/06/12 05:22:21;;;;;;;19.23;17.40;;;19.60;99.90;;;;;;5036421;28;20472;-65
2021/06/12 05:24:48;;;;;;;19.13;17.40;;;19.70;99.90;;;;;;5036495;28;20489;-65
2021/06/12 05:27:15;;;;;;;19.60;17.87;;;19.50;99.90;;;;;;5036416;28;20456;-64
2021/06/12 05:29:41;;;;;;;18.43;17.00;;;19.50;99.90;;;;;;5036270;28;20452;-65
2021/06/12 05:32:08;;;;;;;21.07;19.20;;;19.50;99.90;;;;;;5035928;28;20475;-64
2021/06/12 05:34:34;;;;;;;19.60;18.10;;;19.60;99.90;;;;;;5036189;28;20464;-65
2021/06/12 05:37:00;;;;;;;19.50;18.00;;;19.70;99.90;;;;;;5035828;28;20452;-70
2021/06/12 05:39:27;;;;;;;18.93;17.53;;;19.70;99.90;;;;;;5036069;28;20456;-65
2021/06/12 05:41:53;;;;;;;17.17;15.97;;;19.80;99.90;;;;;;5036280;28;20477;-65
2021/06/12 05:44:21;;;;;;;17.27;15.97;;;19.90;99.90;;;;;;5036124;28;20828;-64
2021/06/12 05:46:49;;;;;;;17.00;15.70;;;20.00;99.90;;;;;;5035991;28;20463;-64
2021/06/12 05:49:15;;;;;;;16.70;15.37;;;20.10;99.90;;;;;;5035857;28;20432;-65
2021/06/12 05:51:42;;;;;;;17.00;15.60;;;20.20;99.90;;;;;;5035710;28;20476;-64
2021/06/12 05:54:08;;;;;;;16.57;15.30;;;20.30;99.90;;;;;;5035640;28;20818;-64
2021/06/12 05:56:34;;;;;;;15.93;14.73;;;20.60;99.90;;;;;;5036060;28;20456;-64
2021/06/12 05:59:00;;;;;;;17.00;15.60;;;20.70;99.90;;;;;;5040428;28;20451;-64
2021/06/12 06:01:28;;;;;;;17.40;16.00;;;20.80;99.90;;;;;;5040328;28;20484;-64
2021/06/12 06:03:54;;;;;;;16.30;15.10;;;20.80;99.90;;;;;;5036339;28;20817;-63
2021/06/12 06:06:20;;;;;;;17.40;15.80;;;20.90;99.90;;;;;;5035646;28;20456;-63
2021/06/12 06:08:47;;;;;;;17.20;15.80;;;21.10;99.90;;;;;;5035563;28;20870;-65
2021/06/12 06:11:13;;;;;;;16.50;15.10;;;21.30;99.90;;;;;;5035469;28;20476;-64
2021/06/12 06:13:40;;;;;;;16.73;15.50;;;21.50;99.90;;;;;;5035305;28;20487;-64
2021/06/12 06:16:07;;;;;;;15.30;14.00;;;21.60;99.90;;;;;;5035442;28;20459;-63
2021/06/12 06:18:35;;;;;;;15.13;14.13;;;21.70;99.90;;;;;;5035242;28;20463;-63
2021/06/12 06:21:01;;;;;;;18.23;16.57;;;21.70;99.90;;;;;;5035506;28;20478;-65
2021/06/12 06:23:27;;;;;;;15.43;14.27;;;21.80;99.90;;;;;;5035296;28;20451;-63
2021/06/12 06:25:54;;;;;;;15.87;14.40;;;22.00;99.90;;;;;;5035111;28;20456;-65
2021/06/12 06:28:20;;;;;;;14.40;13.40;;;22.20;99.90;;;;;;5034856;28;20567;-63
2021/06/12 06:30:46;;;;;;;14.67;13.60;;;22.40;99.90;;;;;;5034983;28;20476;-64
2021/06/12 06:33:12;;;;;;;16.17;14.50;;;22.70;99.90;;;;;;5034626;28;20546;-64
2021/06/12 06:35:40;;;;;;;14.60;13.20;;;23.00;99.90;;;;;;5034865;28;20456;-63
2021/06/12 06:38:06;;;;;;;14.87;13.57;;;23.20;99.90;;;;;;5034839;28;20451;-63
2021/06/12 06:40:33;;;;;;;13.80;12.70;;;23.30;99.90;;;;;;5034679;28;20472;-64
2021/06/12 06:42:59;;;;;;;14.07;12.77;;;23.60;99.90;;;;;;5034522;28;20960;-63
2021/06/12 06:45:27;;;;;;;14.20;12.90;;;23.90;99.90;;;;;;5034352;28;20949;-63
2021/06/12 06:47:53;;;;;;;13.97;12.80;;;24.10;99.90;;;;;;5034637;28;20455;-64
2021/06/12 06:50:20;;;;;;;13.47;12.33;;;24.30;99.90;;;;;;5034630;28;20799;-64
2021/06/12 06:52:49;;;;;;;13.80;12.60;;;24.50;99.90;;;;;;5034644;28;20451;-64
2021/06/12 06:55:16;;;;;;;13.57;12.37;;;24.60;99.90;;;;;;5034746;28;20534;-64
2021/06/12 06:57:43;;;;;;;13.33;12.33;;;25.00;99.90;;;;;;5034696;28;20452;-64
2021/06/12 07:00:10;;;;;;;12.13;11.37;;;25.00;99.90;;;;;;5034707;28;20459;-64
2021/06/12 07:02:36;;;;;;;13.70;12.57;;;25.50;99.90;;;;;;5034082;28;20956;-63
2021/06/12 07:05:03;;;;;;;12.63;11.70;;;25.70;99.90;;;;;;5034728;28;20448;-64
2021/06/12 07:07:29;;;;;;;14.40;13.27;;;26.00;99.90;;;;;;5035277;28;20605;-64
2021/06/12 07:09:57;;;;;;;12.57;11.70;;;26.50;99.90;;;;;;5034912;28;20452;-64
2021/06/12 07:12:23;;;;;;;11.63;10.73;;;27.20;99.90;;;;;;5034548;28;20525;-63
2021/06/12 07:14:49;;;;;;;11.33;10.43;;;27.90;99.90;;;;;;5034316;28;20483;-64
2021/06/12 07:17:15;;;;;;;10.97;10.17;;;28.60;99.90;;;;;;5034319;28;20444;-65
2021/06/12 07:19:42;;;;;;;11.90;10.83;;;29.40;99.90;;;;;;5034761;28;20456;-64
2021/06/12 07:22:08;;;;;;;12.10;10.90;;;29.60;99.90;;;;;;5034241;28;20475;-64
2021/06/12 07:24:34;;;;;;;12.17;11.07;;;29.10;99.90;;;;;;5034145;28;20498;-64
2021/06/12 07:27:02;;;;;;;11.13;10.43;;;29.10;99.90;;;;;;5034034;28;20456;-64
2021/06/12 07:29:28;;;;;;;9.97;9.30;;;29.70;99.90;;;;;;5034267;28;20451;-64
2021/06/12 07:31:55;;;;;;;9.27;8.67;;;30.40;99.90;;;;;;5033932;28;20476;-65
2021/06/12 07:34:21;;;;;;;9.87;9.00;;;30.90;99.00;;;;;;5034031;28;20835;-64
2021/06/12 07:36:48;;;;;;;8.53;7.83;;;31.10;98.40;;;;;;5034049;28;20462;-65
2021/06/12 07:39:14;;;;;;;9.87;9.27;;;31.70;97.80;;;;;;5033596;28;20971;-64
2021/06/12 07:41:40;;;;;;;9.93;9.13;;;31.70;95.50;;;;;;5033629;28;20995;-64
2021/06/12 07:44:08;;;;;;;9.60;8.77;;;31.10;95.40;;;;;;5033669;28;20944;-65
2021/06/12 07:46:35;;;;;;;9.83;9.20;;;31.50;96.50;;;;;;5033921;28;20471;-64
2021/06/12 07:49:03;;;;;;;10.00;9.17;;;31.30;95.20;;;;;;5033907;28;20452;-64
2021/06/12 07:51:32;;;;;;;8.67;8.07;;;31.00;94.90;;;;;;5033850;28;20504;-64
2021/06/12 07:53:59;;;;;;;9.00;8.40;;;30.90;94.90;;;;;;5033756;28;20568;-64
2021/06/12 07:56:25;;;;;;;9.20;8.30;;;30.90;96.00;;;;;;5033633;28;20463;-64
2021/06/12 07:58:52;;;;;;;10.30;8.70;;;30.80;95.90;;;;;;5033684;28;20448;-64
2021/06/12 08:01:19;;;;;;;9.83;8.90;;;30.90;96.00;;;;;;5033662;28;20483;-64
2021/06/12 08:03:45;;;;;;;9.80;9.10;;;30.30;96.00;;;;;;5033870;28;20452;-64
2021/06/12 08:06:12;;;;;;;9.33;8.40;;;30.30;96.70;;;;;;5033597;28;20854;-64
2021/06/12 08:08:38;;;;;;;8.43;7.83;;;30.30;95.40;;;;;;5033425;28;20447;-63
2021/06/12 08:11:04;;;;;;;7.90;7.30;;;30.80;95.20;;;;;;5033529;28;20482;-63
2021/06/12 08:13:30;;;;;;;8.33;7.73;;;31.40;95.80;;;;;;5033244;28;20992;-63
2021/06/12 08:15:56;;;;;;;9.07;8.47;;;31.50;95.00;;;;;;5033464;28;20444;-64
2021/06/12 08:18:24;;;;;;;8.70;8.20;;;32.00;96.10;;;;;;5033474;28;20456;-63
2021/06/12 08:20:50;;;;;;;12.20;9.60;;;32.50;94.30;;;;;;5033385;28;20472;-64
2021/06/12 08:23:17;;;;;;;8.40;7.80;;;32.10;93.80;;;;;;5033130;28;20940;-63
2021/06/12 08:25:44;;;;;;;7.90;7.37;;;31.90;94.90;;;;;;5033157;28;20509;-64
2021/06/12 08:28:10;;;;;;;10.33;9.33;;;32.00;94.20;;;;;;5033359;28;20452;-64
2021/06/12 08:30:37;;;;;;;6.97;6.47;;;32.50;93.80;;;;;;5033136;28;20471;-64
2021/06/12 08:33:03;;;;;;;6.33;5.93;;;32.90;92.90;;;;;;5033431;28;20475;-64
2021/06/12 08:35:31;;;;;;;5.53;5.23;;;33.30;91.90;;;;;;5035600;28;20874;-64
2021/06/12 08:37:58;;;;;;;5.67;5.23;;;33.40;91.70;;;;;;5037440;28;20432;-64
2021/06/12 08:40:24;;;;;;;6.17;5.53;;;33.90;91.40;;;;;;5036980;28;20440;-64
2021/06/12 08:42:51;;;;;;;6.00;5.50;;;33.90;89.60;;;;;;5037273;28;20501;-63
2021/06/12 08:45:19;;;;;;;6.13;4.93;;;34.20;90.50;;;;;;5037117;28;20436;-63
2021/06/12 08:47:46;;;;;;;6.63;6.13;;;34.10;87.70;;;;;;5037057;28;20451;-62
2021/06/12 08:50:13;;;;;;;5.10;4.70;;;33.70;89.40;;;;;;5037063;28;20459;-62
2021/06/12 08:52:40;;;;;;;4.77;4.43;;;34.10;91.10;;;;;;5037070;28;20542;-62
2021/06/12 08:55:10;;;;;;;5.43;5.03;;;34.60;90.20;;;;;;5036719;28;20454;-62
2021/06/12 08:57:36;;;;;;;4.50;4.20;;;34.20;88.80;;;;;;5036871;28;20447;-64
2021/06/12 09:00:05;;;;;;;3.77;3.57;;;34.10;89.00;;;;;;5036935;28;20839;-64
2021/06/12 09:03:04;;;;;;;4.03;3.83;;;34.40;89.30;;;;;;5036361;28;20534;-64
2021/06/12 09:05:39;;;;;;;3.30;3.20;;;34.60;86.40;;;;;;5037147;28;20452;-64
2021/06/12 09:08:08;;;;;;;4.00;3.70;;;34.70;86.10;;;;;;5036812;28;20435;-63
2021/06/12 09:10:35;;;;;;;4.10;3.70;;;34.90;83.90;;;;;;5036508;28;20979;-63
2021/06/12 09:13:01;;;;;;;4.07;3.77;;;35.20;86.40;;;;;;5036335;28;20451;-63
2021/06/12 09:15:28;;;;;;;3.80;3.60;;;35.10;83.50;;;;;;5037937;28;20477;-62
2021/06/12 09:17:54;;;;;;;4.60;4.00;;;34.90;85.30;;;;;;5045002;28;20944;-61
2021/06/12 09:20:41;;;;;;;4.40;4.00;;;35.30;82.70;;;;;;5045647;28;20477;-61
2021/06/12 09:23:11;;;;;;;5.00;3.97;;;35.30;82.70;;;;;;5039089;28;20450;-61
2021/06/12 09:25:39;;;;;;;4.17;3.77;;;35.50;81.30;;;;;;5036570;28;21015;-63
2021/06/12 09:28:05;;;;;;;3.93;3.50;;;35.60;78.80;;;;;;5036607;28;20505;-64
2021/06/12 09:30:32;;;;;;;3.80;3.53;;;35.70;80.20;;;;;;5036422;28;20455;-63
2021/06/12 09:32:58;;;;;;;3.53;3.30;;;35.50;79.70;;;;;;5036342;28;20451;-63
2021/06/12 09:35:31;;;;;;;5.33;3.40;;;35.30;80.00;;;;;;5035891;28;20971;-64
2021/06/12 09:37:59;;;;;;;3.50;3.40;;;35.10;80.40;;;;;;5036237;28;20435;-63
2021/06/12 09:40:30;;;;;;;4.37;4.00;;;34.90;80.30;;;;;;5036832;28;20458;-64
2021/06/12 09:42:58;;;;;;;3.70;3.50;;;34.80;79.30;;;;;;5036390;28;20493;-63
2021/06/12 09:45:26;;;;;;;5.83;4.00;;;34.90;82.30;;;;;;5036849;28;20797;-64
2021/06/12 09:48:07;;;;;;;3.93;3.63;;;34.90;78.90;;;;;;5036067;28;21074;-63
2021/06/12 09:50:33;;;;;;;5.57;3.67;;;35.60;78.10;;;;;;5036148;28;20995;-63
2021/06/12 09:53:10;;;;;;;3.93;3.73;;;36.00;81.10;;;;;;5036079;28;20503;-62
2021/06/12 09:55:39;;;;;;;4.30;4.00;;;36.30;75.40;;;;;;5035745;28;20909;-63
2021/06/12 09:58:07;;;;;;;4.30;4.00;;;36.10;75.40;;;;;;5036021;28;20478;-63
2021/06/12 10:00:37;;;;;;;4.30;4.00;;;35.60;75.30;;;;;;5035714;28;20487;-63
2021/06/12 10:03:04;;;;;;;3.93;3.63;;;35.50;75.90;;;;;;5036061;28;20455;-63
2021/06/12 10:05:31;;;;;;;5.20;3.90;;;35.80;75.90;;;;;;5036194;28;20459;-64
2021/06/12 10:07:57;;;;;;;3.93;3.73;;;36.20;77.60;;;;;;5036148;28;20444;-64
2021/06/12 10:10:24;;;;;;;5.93;3.93;;;36.70;73.00;;;;;;5035724;28;20451;-65
2021/06/12 10:12:53;;;;;;;4.43;3.80;;;37.00;72.20;;;;;;5035383;28;20822;-64
2021/06/12 10:15:20;;;;;;;4.87;4.47;;;37.40;72.80;;;;;;5035817;28;20443;-63
2021/06/12 10:17:48;;;;;;;3.70;3.40;;;37.20;69.40;;;;;;5035751;28;20458;-63
2021/06/12 10:20:16;;;;;;;4.77;4.27;;;37.20;69.10;;;;;;5035627;28;20435;-63
2021/06/12 10:22:44;;;;;;;3.93;3.73;;;37.20;70.10;;;;;;5036087;28;20432;-63
2021/06/12 10:25:11;;;;;;;4.63;4.30;;;37.40;72.00;;;;;;5035923;28;20594;-64
2021/06/12 10:27:40;;;;;;;4.60;4.40;;;37.50;67.00;;;;;;5035439;28;20451;-64
2021/06/12 10:30:10;;;;;;;4.47;3.67;;;37.10;69.40;;;;;;5035402;28;20451;-65
2021/06/12 10:32:42;;;;;;;4.20;3.77;;;37.30;71.10;;;;;;5035984;28;20502;-64
2021/06/12 10:35:10;;;;;;;3.87;3.60;;;37.50;69.90;;;;;;5035548;28;20964;-64
2021/06/12 10:37:59;;;;;;;4.50;4.20;;;37.50;67.20;;;;;;5036277;28;20443;-64
2021/06/12 10:40:40;;;;;;;4.20;3.90;;;37.70;68.70;;;;;;5036057;28;20470;-64
2021/06/12 10:43:10;;;;;;;4.33;3.93;;;37.40;68.60;;;;;;5035959;28;20432;-64
2021/06/12 10:45:38;;;;;;;3.90;3.70;;;37.40;67.90;;;;;;5036916;28;20518;-64
2021/06/12 10:48:06;;;;;;;4.43;4.03;;;37.10;68.70;;;;;;5036474;28;21010;-62
2021/06/12 10:50:35;;;;;;;4.13;3.93;;;37.10;67.70;;;;;;5035828;28;20538;-63
2021/06/12 10:53:22;;;;;;;5.03;4.30;;;37.10;69.60;;;;;;5034964;28;20455;-63
2021/06/12 10:55:50;;;;;;;4.30;3.90;;;37.10;71.30;;;;;;5034731;28;20879;-64
2021/06/12 10:58:45;;;;;;;3.47;3.27;;;37.40;68.20;;;;;;5034051;28;20463;-63
2021/06/12 11:01:16;;;;;;;3.10;2.78;;;37.40;69.60;;;;;;5034193;28;20450;-63
2021/06/12 11:03:46;;;;;;;4.70;4.17;;;37.30;66.20;;;;;;5035861;28;20302;-64
2021/06/12 11:06:32;;;;;;;4.47;4.07;;;36.70;66.70;;;;;;5034706;28;20530;-62
2021/06/12 11:09:38;;;;;;;4.00;3.80;;;36.00;68.50;;;;;;5034542;28;20435;-63
2021/06/12 11:12:30;;;;;;;4.20;3.97;;;35.50;67.40;;;;;;5034142;28;20467;-64
2021/06/12 11:15:02;;;;;;;3.93;3.63;;;35.40;70.10;;;;;;5034375;28;20574;-64
2021/06/12 11:17:29;;;;;;;3.70;3.40;;;34.90;70.60;;;;;;5034180;28;20481;-65
2021/06/12 11:20:29;;;;;;;3.70;3.17;;;34.60;69.20;;;;;;5034087;28;20443;-63
2021/06/12 11:23:00;;;;;;;4.33;4.03;;;34.40;76.90;;;;;;5034081;28;20447;-64
2021/06/12 11:25:38;;;;;;;4.57;3.67;;;33.80;71.20;;;;;;5033827;28;20443;-64
2021/06/12 11:28:22;;;;;;;4.13;3.70;;;33.50;73.00;;;;;;5033963;28;20821;-64
2021/06/12 11:30:50;;;;;;;6.87;4.20;;;33.00;77.20;;;;;;5034054;28;20490;-64
2021/06/12 11:33:18;;;;;;;4.77;4.37;;;32.70;77.90;;;;;;5033994;28;20432;-64
2021/06/12 11:35:47;;;;;;;4.23;3.80;;;32.20;77.10;;;;;;5033920;28;20436;-63
2021/06/12 11:38:16;;;;;;;5.20;4.50;;;31.90;79.40;;;;;;5034231;28;20821;-63
2021/06/12 11:40:52;;;;;;;5.00;4.70;;;31.80;79.70;;;;;;5034057;28;20476;-63
2021/06/12 11:43:37;;;;;;;4.13;3.83;;;31.80;82.80;;;;;;5034095;28;20436;-64
2021/06/12 11:46:06;;;;;;;3.40;3.30;;;31.80;77.00;;;;;;5034025;28;20455;-62
2021/06/12 11:48:38;;;;;;;4.97;4.00;;;31.70;76.60;;;;;;5033942;28;20456;-63
2021/06/12 11:51:16;;;;;;;3.80;3.60;;;31.50;82.40;;;;;;5034125;28;20475;-63
2021/06/12 11:53:44;;;;;;;4.37;3.47;;;31.40;83.50;;;;;;5033847;28;20459;-62
2021/06/12 11:56:10;;;;;;;3.00;2.80;;;31.50;85.50;;;;;;5033603;28;20813;-62
2021/06/12 11:58:54;;;;;;;3.53;3.23;;;31.70;85.40;;;;;;5033963;28;20478;-62
2021/06/12 12:01:37;;;;;;;3.50;3.30;;;31.60;78.10;;;;;;5033703;28;20569;-63
2021/06/12 12:04:10;;;;;;;3.27;2.57;;;31.50;79.10;;;;;;5034303;28;20922;-62
2021/06/12 12:06:37;;;;;;;4.37;2.90;;;31.30;81.00;;;;;;5033710;28;20523;-62
2021/06/12 12:09:05;;;;;;;4.30;2.97;;;31.50;84.30;;;;;;5035031;28;20939;-64
2021/06/12 12:11:31;;;;;;;2.90;2.70;;;31.70;81.60;;;;;;5038038;28;20471;-62
2021/06/12 12:14:05;;;;;;;3.00;2.80;;;31.60;81.20;;;;;;5037791;28;20472;-62
2021/06/12 12:16:32;;;;;;;3.50;3.20;;;31.40;79.30;;;;;;5037740;28;20494;-61
2021/06/12 12:19:00;;;;;;;4.90;2.40;;;31.20;81.10;;;;;;5037850;28;20455;-63
2021/06/12 12:21:36;;;;;;;2.70;2.50;;;30.80;80.30;;;;;;5037714;28;20480;-62
2021/06/12 12:24:05;;;;;;;3.47;2.90;;;30.80;81.30;;;;;;5037792;28;20447;-62
2021/06/12 12:26:31;;;;;;;5.10;3.00;;;30.90;79.70;;;;;;5037773;28;20452;-62
2021/06/12 12:29:00;;;;;;;2.50;2.30;;;31.00;80.70;;;;;;5037852;28;20451;-63
2021/06/12 12:31:29;;;;;;;2.60;2.50;;;31.00;78.10;;;;;;5044429;28;20568;-62
2021/06/12 12:33:56;;;;;;;3.93;2.57;;;30.90;79.30;;;;;;5045986;28;20479;-63
2021/06/12 12:36:24;;;;;;;3.10;2.40;;;30.90;80.20;;;;;;5043402;28;20506;-62
2021/06/12 12:39:00;;;;;;;10.17;2.50;;;31.00;74.60;;;;;;5040050;28;20462;-62
2021/06/12 12:41:27;;;;;;;2.70;2.50;;;31.00;79.60;;;;;;5044376;28;20479;-62
2021/06/12 12:44:12;;;;;;;3.80;3.00;;;31.10;76.60;;;;;;5046432;28;20930;-62
2021/06/12 12:46:40;;;;;;;3.00;2.80;;;31.00;77.50;;;;;;5039585;28;20642;-64
2021/06/12 12:49:07;;;;;;;2.40;2.20;;;31.00;81.40;;;;;;5036889;28;20486;-63
2021/06/12 12:51:35;;;;;;;2.80;2.60;;;31.00;79.50;;;;;;5037110;28;20476;-64
2021/06/12 12:54:13;;;;;;;3.47;3.17;;;30.90;85.80;;;;;;5037279;28;20506;-63
2021/06/12 12:56:47;;;;;;;2.70;2.60;;;31.00;83.10;;;;;;5037313;28;20451;-63
2021/06/12 12:59:27;;;;;;;2.60;2.50;;;31.10;80.90;;;;;;5036852;28;20443;-62
2021/06/12 13:01:54;;;;;;;3.40;3.20;;;31.30;78.20;;;;;;5036362;28;20554;-62
2021/06/12 13:04:32;;;;;;;6.10;3.30;;;31.20;78.60;;;;;;5036847;28;20630;-62
2021/06/12 13:07:13;;;;;;;2.73;2.57;;;31.10;77.80;;;;;;5038248;28;20447;-61
2021/06/12 13:09:43;;;;;;;3.50;3.30;;;31.10;79.20;;;;;;5037089;28;20522;-62
2021/06/12 13:12:16;;;;;;;2.90;2.60;;;31.20;77.90;;;;;;5037048;28;20598;-63
2021/06/12 13:14:44;;;;;;;2.90;2.70;;;31.30;82.30;;;;;;5036990;28;20475;-61
2021/06/12 13:17:12;;;;;;;4.53;2.50;;;31.40;81.30;;;;;;5036754;28;20459;-64
2021/06/12 13:19:44;;;;;;;2.27;2.17;;;31.50;78.50;;;;;;5037410;28;20448;-62
2021/06/12 13:22:29;;;;;;;2.00;1.90;;;31.70;77.90;;;;;;5035614;28;20945;-64
2021/06/12 13:25:00;;;;;;;4.37;3.00;;;31.50;76.50;;;;;;5036198;28;20932;-62
2021/06/12 13:27:39;;;;;;;3.03;2.40;;;31.50;75.30;;;;;;5036810;28;20445;-62
2021/06/12 13:30:08;;;;;;;2.40;2.20;;;31.40;75.10;;;;;;5036909;28;20497;-62
2021/06/12 13:32:35;;;;;;;2.10;1.87;;;31.20;75.10;;;;;;5037365;28;20821;-62
2021/06/12 13:35:02;;;;;;;2.53;1.87;;;31.20;78.40;;;;;;5036487;28;20471;-63
2021/06/12 13:37:29;;;;;;;2.40;2.20;;;31.20;78.60;;;;;;5036396;28;20455;-62
2021/06/12 13:39:59;;;;;;;2.70;2.30;;;31.10;79.60;;;;;;5036126;28;20452;-63
2021/06/12 13:42:32;;;;;;;4.80;2.00;;;31.00;77.30;;;;;;5036065;28;20471;-62
2021/06/12 13:45:08;;;;;;;2.23;2.10;;;30.90;77.00;;;;;;5035942;28;20917;-62
2021/06/12 13:47:35;;;;;;;2.50;2.40;;;30.70;76.90;;;;;;5036034;28;20440;-62
2021/06/12 13:50:02;;;;;;;7.50;2.53;;;30.60;76.90;;;;;;5036362;28;20455;-61
2021/06/12 13:52:29;;;;;;;2.10;2.03;;;30.60;82.80;;;;;;5035843;28;20472;-62
2021/06/12 13:54:57;;;;;;;2.00;1.90;;;30.70;80.60;;;;;;5035738;28;20480;-62
2021/06/12 13:57:23;;;;;;;9.43;2.27;;;30.50;77.50;;;;;;5035386;28;20834;-62
2021/06/12 13:59:49;;;;;;;5.40;2.03;;;30.30;80.20;;;;;;5035817;28;20488;-63
2021/06/12 14:02:15;;;;;;;2.97;1.87;;;30.30;77.20;;;;;;5035340;28;20488;-64
2021/06/12 14:04:41;;;;;;;1.80;1.70;;;30.30;81.90;;;;;;5035726;28;20455;-64
2021/06/12 14:07:08;;;;;;;3.53;2.00;;;30.30;81.80;;;;;;5035616;28;20527;-63
2021/06/12 14:09:35;;;;;;;2.30;1.93;;;30.30;80.00;;;;;;5035554;28;20452;-63
2021/06/12 14:12:03;;;;;;;1.93;1.83;;;30.20;78.00;;;;;;5035630;28;20877;-64
2021/06/12 14:14:30;;;;;;;2.10;1.90;;;30.20;79.60;;;;;;5035284;28;20845;-63
2021/06/12 14:16:56;;;;;;;1.60;1.50;;;30.10;77.70;;;;;;5035355;28;20821;-63
2021/06/12 14:19:22;;;;;;;2.10;2.00;;;30.10;79.40;;;;;;5035443;28;20436;-63
2021/06/12 14:21:50;;;;;;;1.80;1.70;;;30.10;79.10;;;;;;5035161;28;20479;-63
2021/06/12 14:24:17;;;;;;;5.37;2.30;;;30.10;82.40;;;;;;5034902;28;20460;-63
2021/06/12 14:26:45;;;;;;;2.07;1.87;;;29.90;79.30;;;;;;5035167;28;20462;-63
2021/06/12 14:29:15;;;;;;;2.10;1.90;;;30.00;78.70;;;;;;5034902;28;20645;-63
2021/06/12 14:31:42;;;;;;;1.80;1.73;;;29.90;80.90;;;;;;5035243;28;20877;-63
2021/06/12 14:34:08;;;;;;;1.93;1.83;;;29.90;79.60;;;;;;5034433;28;20476;-65
2021/06/12 14:36:34;;;;;;;2.97;1.50;;;30.00;80.70;;;;;;5034975;28;20440;-63
2021/06/12 14:39:00;;;;;;;2.07;1.87;;;30.10;79.60;;;;;;5035214;28;20452;-63
2021/06/12 14:41:27;;;;;;;1.83;1.73;;;30.10;78.10;;;;;;5035259;28;20468;-63
2021/06/12 14:43:53;;;;;;;1.80;1.70;;;30.10;80.90;;;;;;5035197;28;20448;-63
2021/06/12 14:46:21;;;;;;;1.80;1.70;;;30.10;83.10;;;;;;5035432;28;20452;-63
2021/06/12 14:48:49;;;;;;;1.93;1.93;;;30.10;80.30;;;;;;5035168;28;20456;-63
2021/06/12 14:51:15;;;;;;;3.60;2.10;;;30.00;79.90;;;;;;5035320;28;20468;-63
2021/06/12 14:53:41;;;;;;;1.83;1.77;;;30.00;80.10;;;;;;5034771;28;20452;-64
2021/06/12 14:56:07;;;;;;;1.80;1.70;;;30.00;80.50;;;;;;5034623;28;20449;-64
2021/06/12 14:58:34;;;;;;;1.40;1.40;;;29.90;78.50;;;;;;5034245;28;20968;-64
2021/06/12 15:01:00;;;;;;;1.43;1.43;;;29.90;80.50;;;;;;5034737;28;20494;-64
2021/06/12 15:03:27;;;;;;;1.70;1.60;;;29.80;80.40;;;;;;5038290;28;20456;-63
2021/06/12 15:05:54;;;;;;;1.40;1.40;;;29.60;79.60;;;;;;5035415;28;20452;-64
2021/06/12 15:08:20;;;;;;;1.50;1.27;;;29.50;79.40;;;;;;5034862;28;20815;-63
2021/06/12 15:10:46;;;;;;;1.63;1.53;;;29.50;81.60;;;;;;5034440;28;20479;-63
2021/06/12 15:13:12;;;;;;;1.73;1.50;;;29.30;78.60;;;;;;5034350;28;20456;-63
2021/06/12 15:15:38;;;;;;;1.20;1.20;;;29.30;80.30;;;;;;5034208;28;20964;-64
2021/06/12 15:18:05;;;;;;;1.47;1.47;;;29.40;84.30;;;;;;5034219;28;20448;-64
2021/06/12 15:20:34;;;;;;;1.50;1.40;;;29.40;82.30;;;;;;5034807;28;20460;-63
2021/06/12 15:23:00;;;;;;;1.00;1.00;;;29.40;83.60;;;;;;5034136;28;20456;-63
2021/06/12 15:25:26;;;;;;;1.10;0.93;;;29.40;80.30;;;;;;5034097;28;20502;-63
2021/06/12 15:27:53;;;;;;;1.80;1.40;;;29.30;80.30;;;;;;5034060;28;20466;-64
2021/06/12 15:30:20;;;;;;;1.30;1.20;;;29.40;78.10;;;;;;5033910;28;20501;-63
2021/06/12 15:32:46;;;;;;;3.60;1.23;;;29.30;79.00;;;;;;5033960;28;20502;-64
2021/06/12 15:35:12;;;;;;;1.10;1.10;;;29.00;79.00;;;;;;5033500;28;20471;-63
2021/06/12 15:37:41;;;;;;;1.27;1.23;;;29.10;79.10;;;;;;5033768;28;20482;-63
2021/06/12 15:40:09;;;;;;;1.30;1.30;;;29.00;78.30;;;;;;5033822;28;20460;-63
2021/06/12 15:42:35;;;;;;;2.10;1.03;;;28.90;79.00;;;;;;5033638;28;20510;-63
2021/06/12 15:45:02;;;;;;;1.27;1.17;;;29.00;78.10;;;;;;5033371;28;20802;-63
2021/06/12 15:47:28;;;;;;;1.10;1.10;;;29.10;79.30;;;;;;5034184;28;20551;-64
2021/06/12 15:49:55;;;;;;;3.43;1.07;;;29.10;77.80;;;;;;5034275;28;20791;-63
2021/06/12 15:52:21;;;;;;;2.63;1.20;;;29.10;77.90;;;;;;5033256;28;20484;-63
2021/06/12 15:54:49;;;;;;;2.20;1.23;;;29.00;78.60;;;;;;5033437;28;20472;-63
2021/06/12 15:57:15;;;;;;;1.53;0.93;;;29.00;79.10;;;;;;5034124;28;20478;-63
2021/06/12 15:59:41;;;;;;;1.10;1.10;;;29.00;78.80;;;;;;5033419;28;20459;-63
2021/06/12 16:02:07;;;;;;;1.37;1.10;;;28.90;77.90;;;;;;5033071;28;20538;-65
2021/06/12 16:04:34;;;;;;;1.17;1.17;;;28.90;79.00;;;;;;5015450;28;20929;-62
2021/06/12 16:07:00;;;;;;;1.37;1.33;;;28.80;79.00;;;;;;5033157;28;20933;-63
2021/06/12 16:09:26;;;;;;;4.67;1.83;;;28.70;82.40;;;;;;5035702;28;20459;-63
2021/06/12 16:11:54;;;;;;;2.73;1.37;;;28.50;80.60;;;;;;5040265;28;20472;-60
2021/06/12 16:14:20;;;;;;;2.43;2.27;;;28.30;84.40;;;;;;5041465;28;20476;-61
2021/06/12 16:16:46;;;;;;;4.53;3.77;;;28.10;84.20;;;;;;5040063;28;20467;-62
2021/06/12 16:19:13;;;;;;;2.53;1.90;;;27.90;84.30;;;;;;5038244;28;20956;-62
2021/06/12 16:21:39;;;;;;;3.27;2.03;;;27.80;84.90;;;;;;5033835;28;20480;-61
2021/06/12 16:24:06;;;;;;;1.17;1.17;;;27.50;84.70;;;;;;5033612;28;20452;-60
2021/06/12 16:26:32;;;;;;;1.63;1.47;;;27.40;84.50;;;;;;5033206;28;20811;-61
2021/06/12 16:29:00;;;;;;;4.13;2.40;;;27.50;86.10;;;;;;5033185;28;20968;-61
2021/06/12 16:31:26;;;;;;;3.13;1.70;;;27.30;86.00;;;;;;5033392;28;20478;-61
2021/06/12 16:33:52;;;;;;;1.30;1.20;;;27.20;84.40;;;;;;5033395;28;20463;-61
2021/06/12 16:36:18;;;;;;;1.00;1.00;;;27.20;86.30;;;;;;5033225;28;20452;-61
2021/06/12 16:38:45;;;;;;;1.40;1.30;;;27.30;84.90;;;;;;5033478;28;20467;-62
2021/06/12 16:41:11;;;;;;;1.57;1.47;;;27.40;86.30;;;;;;5033176;28;20985;-63
2021/06/12 16:43:37;;;;;;;3.10;1.87;;;27.60;86.20;;;;;;5033923;28;20452;-62
2021/06/12 16:46:05;;;;;;;1.20;1.20;;;27.60;86.20;;;;;;5033253;28;20971;-62
2021/06/12 16:48:31;;;;;;;2.00;1.23;;;27.50;85.60;;;;;;5033086;28;20452;-62